Time;durP1;ratioP1;P1;durP2;ratioP2;P2;SDS_P1;SDS_P2;PMS_P1;PMS_P2;Temp;Humidity;BMP_temperature;BMP_pressure;BME280_temperature;BME280_humidity;BME280_pressure;Samples;Min_cycle;Max_cycle;Signal;HPM_P1;HPM_P2
2022/07/03 00:00:17;;;;;;;20.88;12.93;;;;;;;20.80;100.00;97794.16;5013246;28;20032;-78
2022/07/03 00:02:43;;;;;;;15.73;12.43;;;;;;;20.88;100.00;97814.19;5029770;28;20033;-79
2022/07/03 00:05:09;;;;;;;16.50;12.32;;;;;;;20.84;100.00;97812.75;5009975;28;20029;-79
2022/07/03 00:07:36;;;;;;;17.65;12.80;;;;;;;20.85;100.00;97808.19;5023888;28;20562;-79
2022/07/03 00:10:02;;;;;;;18.58;13.10;;;;;;;20.85;100.00;97806.31;5024966;28;20057;-79
2022/07/03 00:12:28;;;;;;;18.95;13.48;;;;;;;20.82;100.00;97817.50;5012055;28;20053;-79
2022/07/03 00:14:53;;;;;;;19.33;13.20;;;;;;;20.76;100.00;97806.38;5013155;28;20021;-79
2022/07/03 00:17:19;;;;;;;19.08;12.85;;;;;;;20.70;100.00;97805.13;4994607;28;20054;-80
2022/07/03 00:19:45;;;;;;;19.02;14.45;;;;;;;20.57;100.00;97799.19;4996923;28;20492;-78
2022/07/03 00:22:12;;;;;;;19.17;14.35;;;;;;;20.51;100.00;97802.50;5012909;28;20029;-79
2022/07/03 00:24:52;;;;;;;22.60;13.50;;;;;;;20.45;100.00;97794.94;5029404;28;20033;-79
2022/07/03 00:27:19;;;;;;;20.58;13.57;;;;;;;20.46;100.00;97789.34;5012953;28;20060;-78
2022/07/03 00:29:45;;;;;;;17.48;13.13;;;;;;;20.54;100.00;97791.31;5029069;28;20021;-76
2022/07/03 00:32:13;;;;;;;19.42;13.23;;;;;;;20.56;100.00;97786.59;5012427;28;20037;-79
2022/07/03 00:34:39;;;;;;;18.95;13.15;;;;;;;20.60;100.00;97798.00;5029396;28;20025;-79
2022/07/03 00:37:09;;;;;;;20.70;12.98;;;;;;;20.62;100.00;97787.84;5012947;28;20485;-79
2022/07/03 00:39:40;;;;;;;19.25;12.75;;;;;;;20.54;100.00;97772.31;4993565;28;20038;-79
2022/07/03 00:42:07;;;;;;;20.23;13.45;;;;;;;20.53;100.00;97776.00;5009827;28;20022;-79
2022/07/03 00:44:42;;;;;;;16.70;12.20;;;;;;;20.49;100.00;97770.03;5018887;28;20088;-78
2022/07/03 00:47:08;;;;;;;21.70;12.57;;;;;;;20.48;100.00;97773.75;5024892;28;20036;-79
2022/07/03 00:49:35;;;;;;;22.13;12.80;;;;;;;20.43;100.00;97781.50;5029221;28;20021;-79
2022/07/03 00:52:05;;;;;;;22.45;12.70;;;;;;;20.37;100.00;97786.66;5029371;28;20386;-78
2022/07/03 00:54:33;;;;;;;19.63;13.40;;;;;;;20.31;100.00;97781.84;5010668;28;20057;-79
2022/07/03 00:57:01;;;;;;;18.90;13.00;;;;;;;20.28;100.00;97782.13;5028613;28;20045;-80
2022/07/03 00:59:43;;;;;;;20.88;12.32;;;;;;;20.08;100.00;97792.22;5029299;28;20091;-78
2022/07/03 01:02:32;;;;;;;22.67;12.70;;;;;;;19.93;100.00;97778.22;5000287;28;20092;-79
2022/07/03 01:05:40;;;;;;;20.45;12.43;;;;;;;19.97;100.00;97785.06;5026690;28;20040;-79
2022/07/03 01:08:43;;;;;;;16.80;11.70;;;;;;;19.93;100.00;97793.69;4988498;28;20044;-79
2022/07/03 01:11:40;;;;;;;16.67;11.93;;;;;;;19.91;100.00;97784.81;4992759;28;20120;-79
2022/07/03 01:14:14;;;;;;;20.08;12.15;;;;;;;19.90;100.00;97783.13;5012241;28;20492;-78
2022/07/03 01:16:57;;;;;;;20.38;11.70;;;;;;;19.87;100.00;97781.53;5012448;28;20022;-79
2022/07/03 01:19:31;;;;;;;16.45;11.90;;;;;;;19.90;100.00;97789.38;5012359;28;20036;-79
2022/07/03 01:22:11;;;;;;;16.77;11.75;;;;;;;19.87;100.00;97783.41;5028860;28;20037;-79
2022/07/03 01:25:07;;;;;;;18.17;11.30;;;;;;;19.84;100.00;97783.69;5016038;28;20076;-80
2022/07/03 01:28:00;;;;;;;15.02;11.23;;;;;;;19.87;100.00;97784.25;5012425;28;20501;-80
2022/07/03 01:30:31;;;;;;;14.88;11.13;;;;;;;19.90;100.00;97788.53;5001646;28;20459;-79
2022/07/03 01:32:58;;;;;;;17.77;11.25;;;;;;;19.91;100.00;97779.38;5010945;28;20053;-79
2022/07/03 01:35:34;;;;;;;21.90;11.50;;;;;;;19.90;100.00;97775.78;5015080;28;20029;-80
2022/07/03 01:38:06;;;;;;;20.55;11.60;;;;;;;19.77;100.00;97758.13;5032483;28;20406;-80
2022/07/03 01:40:33;;;;;;;17.73;11.50;;;;;;;19.94;100.00;97773.66;5030065;28;20428;-80
2022/07/03 01:43:02;;;;;;;16.10;11.38;;;;;;;19.96;100.00;97766.22;4999387;28;20053;-78
2022/07/03 01:45:28;;;;;;;22.60;12.13;;;;;;;20.01;100.00;97764.78;4996076;28;20033;-79
2022/07/03 01:47:57;;;;;;;14.10;10.88;;;;;;;19.95;100.00;97753.66;5032359;28;20040;-80
2022/07/03 01:50:24;;;;;;;22.98;11.23;;;;;;;19.94;100.00;97757.34;5031982;28;20052;-79
2022/07/03 01:52:50;;;;;;;19.35;12.10;;;;;;;20.02;100.00;97776.50;5031987;28;20021;-78
2022/07/03 01:55:16;;;;;;;16.52;12.35;;;;;;;19.82;100.00;97761.25;5031847;28;20025;-79
2022/07/03 01:57:47;;;;;;;18.55;12.35;;;;;;;19.92;100.00;97773.81;5031676;28;20033;-79
2022/07/03 02:00:15;;;;;;;24.70;12.30;;;;;;;19.85;100.00;97766.38;5015360;28;20091;-79
2022/07/03 02:03:05;;;;;;;19.40;11.82;;;;;;;19.78;100.00;97755.25;5015314;28;20455;-79
2022/07/03 02:05:32;;;;;;;18.33;12.60;;;;;;;19.77;100.00;97769.84;5024210;28;20484;-79
2022/07/03 02:08:03;;;;;;;16.83;12.20;;;;;;;19.71;100.00;97777.72;5004283;28;20037;-80
2022/07/03 02:10:33;;;;;;;22.48;13.02;;;;;;;19.52;100.00;97759.63;5048108;28;20078;-79
2022/07/03 02:13:10;;;;;;;19.73;13.07;;;;;;;19.59;100.00;97774.31;5013138;28;20512;-80
2022/07/03 02:15:40;;;;;;;18.35;11.73;;;;;;;19.58;100.00;97772.59;4999103;28;20029;-79
2022/07/03 02:18:14;;;;;;;21.75;12.50;;;;;;;19.57;100.00;97773.59;5031272;28;20104;-80
2022/07/03 02:20:47;;;;;;;19.45;11.85;;;;;;;19.63;100.00;97770.28;5015091;28;20138;-80
2022/07/03 02:23:13;;;;;;;22.05;12.60;;;;;;;19.69;100.00;97777.84;5031547;28;20489;-81
2022/07/03 02:25:41;;;;;;;19.15;11.80;;;;;;;19.61;100.00;97766.88;5031434;28;20390;-79
2022/07/03 02:28:24;;;;;;;27.30;14.30;;;;;;;19.63;100.00;97778.44;5014874;28;20029;-80
2022/07/03 02:30:52;;;;;;;27.05;13.63;;;;;;;19.58;100.00;97771.75;5013813;28;20108;-78
2022/07/03 02:33:27;;;;;;;17.77;13.57;;;;;;;19.59;100.00;97793.31;5014286;28;20523;-78
2022/07/03 02:36:00;;;;;;;26.52;12.60;;;;;;;19.49;100.00;97778.91;5030627;28;20029;-79
2022/07/03 02:38:26;;;;;;;25.67;13.60;;;;;;;19.52;100.00;97783.19;5030989;28;20476;-79
2022/07/03 02:41:07;;;;;;;19.90;13.77;;;;;;;19.59;100.00;97789.75;4999248;28;20025;-78
2022/07/03 02:43:49;;;;;;;21.70;14.05;;;;;;;19.58;100.00;97788.03;5015315;28;20124;-79
2022/07/03 02:47:05;;;;;;;20.92;13.07;;;;;;;19.60;100.00;97792.31;5015014;28;20041;-77
2022/07/03 02:49:53;;;;;;;26.15;13.60;;;;;;;19.59;100.00;97795.19;4949561;29;20039;-80
2022/07/03 02:52:37;;;;;;;23.40;13.65;;;;;;;19.58;100.00;97802.44;4991564;28;20465;-80
2022/07/03 02:55:21;;;;;;;17.92;13.50;;;;;;;19.59;100.00;97804.19;5009651;28;20018;-79
2022/07/03 02:57:55;;;;;;;21.23;14.40;;;;;;;19.56;100.00;97798.19;5029811;28;20045;-78
2022/07/03 03:00:23;;;;;;;18.48;13.68;;;;;;;19.45;100.00;97772.91;5010172;28;20022;-79
2022/07/03 03:02:55;;;;;;;21.48;13.48;;;;;;;19.74;100.00;97810.88;5030204;28;20029;-78
2022/07/03 03:05:24;;;;;;;22.15;12.70;;;;;;;19.80;100.00;97798.56;4997377;28;20044;-81
2022/07/03 03:08:08;;;;;;;16.00;12.30;;;;;;;19.85;100.00;97810.69;5009941;28;20033;-79
2022/07/03 03:10:37;;;;;;;26.50;13.55;;;;;;;19.82;100.00;97799.25;5007023;28;20029;-79
2022/07/03 03:13:06;;;;;;;19.38;12.77;;;;;;;19.85;100.00;97810.69;5010660;28;20025;-79
2022/07/03 03:15:34;;;;;;;19.05;13.20;;;;;;;19.90;100.00;97807.56;5013832;28;20031;-79
2022/07/03 03:18:04;;;;;;;23.45;12.43;;;;;;;19.94;100.00;97804.38;4997223;28;20029;-79
2022/07/03 03:20:32;;;;;;;22.98;12.52;;;;;;;20.01;100.00;97805.50;5015633;28;20032;-79
2022/07/03 03:23:09;;;;;;;20.67;13.48;;;;;;;20.07;100.00;97814.94;5026421;28;20025;-80
2022/07/03 03:25:36;;;;;;;22.15;12.25;;;;;;;20.05;100.00;97808.81;5029829;28;20083;-80
2022/07/03 03:28:02;;;;;;;20.42;11.85;;;;;;;20.09;100.00;97804.75;5013764;28;20029;-79
2022/07/03 03:30:28;;;;;;;22.25;12.32;;;;;;;20.24;100.00;97814.16;5027415;28;20489;-79
2022/07/03 03:32:54;;;;;;;17.75;12.57;;;;;;;20.32;100.00;97813.44;4993503;28;20061;-80
2022/07/03 03:35:19;;;;;;;18.88;12.35;;;;;;;20.22;100.00;97780.84;5007533;28;20065;-81
2022/07/03 03:37:48;;;;;;;23.05;12.43;;;;;;;20.36;100.00;97798.56;5006756;28;20026;-81
2022/07/03 03:40:15;;;;;;;22.27;13.05;;;;;;;20.38;100.00;97785.69;5007482;28;20034;-80
2022/07/03 03:42:41;;;;;;;18.52;12.75;;;;;;;20.38;100.00;97791.09;5008123;28;20413;-80
2022/07/03 03:45:07;;;;;;;20.10;13.15;;;;;;;20.45;100.00;97803.09;5026539;28;20030;-80
2022/07/03 03:47:33;;;;;;;16.63;13.27;;;;;;;20.46;100.00;97799.34;5010059;28;20025;-79
2022/07/03 03:50:00;;;;;;;19.13;12.43;;;;;;;20.49;100.00;97805.34;5009808;28;20022;-80
2022/07/03 03:52:25;;;;;;;18.40;13.63;;;;;;;20.47;100.00;97793.78;5026287;28;20030;-80
2022/07/03 03:54:51;;;;;;;22.98;13.00;;;;;;;20.55;100.00;97795.72;5008535;28;20053;-80
2022/07/03 03:57:22;;;;;;;19.58;12.68;;;;;;;20.64;100.00;97800.25;4988036;28;20026;-79
2022/07/03 03:59:48;;;;;;;22.38;12.80;;;;;;;20.64;100.00;97804.88;5026420;28;20026;-80
2022/07/03 04:02:13;;;;;;;27.42;13.90;;;;;;;20.36;100.00;97799.44;5003049;28;20496;-79
2022/07/03 04:04:39;;;;;;;21.98;13.98;;;;;;;20.47;100.00;97804.66;5026053;28;20553;-79
2022/07/03 04:07:05;;;;;;;18.70;13.38;;;;;;;20.40;100.00;97789.09;5009422;28;20121;-83
2022/07/03 04:09:31;;;;;;;22.75;13.38;;;;;;;20.49;100.00;97797.19;5009563;28;20028;-79
2022/07/03 04:11:57;;;;;;;22.33;14.48;;;;;;;20.47;100.00;97787.50;4993041;28;20047;-82
2022/07/03 04:14:23;;;;;;;16.70;13.07;;;;;;;20.58;100.00;97797.31;5025415;28;20036;-78
2022/07/03 04:16:48;;;;;;;19.17;13.07;;;;;;;20.64;100.00;97800.25;4993568;28;20113;-77
2022/07/03 04:19:14;;;;;;;20.83;13.48;;;;;;;20.65;100.00;97796.53;5008765;28;20038;-80
2022/07/03 04:21:39;;;;;;;21.80;13.20;;;;;;;20.85;100.00;97794.59;5008383;28;20025;-80
2022/07/03 04:24:05;;;;;;;29.13;16.48;;;;;;;21.00;100.00;97801.22;5022411;28;20034;-80
2022/07/03 04:26:31;;;;;;;17.73;13.35;;;;;;;20.96;100.00;97800.66;5005014;28;20030;-79
2022/07/03 04:28:56;;;;;;;23.58;14.18;;;;;;;21.01;100.00;97798.31;5007829;28;20058;-80
2022/07/03 04:31:22;;;;;;;18.75;13.70;;;;;;;21.18;100.00;97803.97;5006078;28;20077;-80
2022/07/03 04:33:47;;;;;;;26.77;15.43;;;;;;;21.29;100.00;97806.44;5009554;28;20041;-79
2022/07/03 04:36:13;;;;;;;19.95;12.85;;;;;;;20.96;100.00;97783.47;5000796;28;20517;-79
2022/07/03 04:38:39;;;;;;;23.80;13.65;;;;;;;21.22;100.00;97805.38;5008975;28;20478;-79
2022/07/03 04:41:05;;;;;;;17.70;13.00;;;;;;;21.31;100.00;97794.44;5005985;28;20049;-79
2022/07/03 04:43:31;;;;;;;25.45;14.40;;;;;;;21.39;100.00;97793.63;5008455;28;20030;-80
2022/07/03 04:45:57;;;;;;;22.30;13.52;;;;;;;21.35;100.00;97789.53;5025807;28;20025;-79
2022/07/03 04:48:22;;;;;;;21.02;13.77;;;;;;;21.50;100.00;97783.34;4988468;28;20062;-78
2022/07/03 04:50:48;;;;;;;19.42;12.40;;;;;;;21.53;100.00;97788.47;5024248;28;20124;-81
2022/07/03 04:53:13;;;;;;;22.48;13.70;;;;;;;21.51;100.00;97789.66;5009134;28;20033;-79
2022/07/03 04:55:39;;;;;;;20.83;13.35;;;;;;;21.52;100.00;97785.94;5025490;28;20493;-80
2022/07/03 04:58:04;;;;;;;24.58;13.25;;;;;;;21.69;100.00;97804.09;5001521;28;20069;-80
2022/07/03 05:00:31;;;;;;;22.30;14.38;;;;;;;21.58;100.00;97802.50;5029159;28;20033;-79
2022/07/03 05:02:56;;;;;;;19.00;14.07;;;;;;;21.51;100.00;97795.97;5029145;28;20088;-79
2022/07/03 05:05:22;;;;;;;23.23;14.10;;;;;;;21.67;100.00;97792.53;4994250;28;20033;-79
2022/07/03 05:07:47;;;;;;;20.48;13.23;;;;;;;21.76;100.00;97798.88;5010402;28;20520;-80
2022/07/03 05:10:13;;;;;;;25.35;13.85;;;;;;;21.78;100.00;97797.69;5013705;28;20066;-79
2022/07/03 05:12:39;;;;;;;17.63;13.52;;;;;;;21.91;100.00;97800.91;4996104;28;20038;-80
2022/07/03 05:15:05;;;;;;;23.92;14.27;;;;;;;21.98;100.00;97804.72;5014386;28;20030;-80
2022/07/03 05:17:31;;;;;;;18.75;14.27;;;;;;;22.13;100.00;97808.56;5029611;28;20018;-79
2022/07/03 05:22:40;;;;;;;32.80;15.07;;;;;;;22.15;100.00;97814.69;5011688;28;20120;-80
2022/07/03 05:25:06;;;;;;;27.13;15.32;;;;;;;22.03;100.00;97815.97;5029459;28;20450;-79
2022/07/03 05:27:36;;;;;;;27.77;14.43;;;;;;;22.07;100.00;97817.38;5029068;28;20026;-78
2022/07/03 05:30:01;;;;;;;28.05;15.98;;;;;;;22.08;100.00;97815.50;5029287;28;20026;-80
2022/07/03 05:32:27;;;;;;;23.92;15.13;;;;;;;22.08;100.00;97819.09;5010423;28;20486;-79
2022/07/03 05:34:52;;;;;;;23.85;15.18;;;;;;;22.00;100.00;97818.16;5029082;28;20032;-79
2022/07/03 05:37:18;;;;;;;30.95;15.75;;;;;;;21.92;100.00;97805.34;5029105;28;20100;-79
2022/07/03 05:39:45;;;;;;;20.95;14.98;;;;;;;22.23;100.00;97823.94;5012215;28;20034;-79
2022/07/03 05:42:11;;;;;;;21.63;14.25;;;;;;;22.42;100.00;97821.00;5026521;28;20132;-80
2022/07/03 05:44:36;;;;;;;20.13;15.68;;;;;;;22.55;100.00;97826.84;5028387;28;20155;-80
2022/07/03 05:47:02;;;;;;;20.10;13.73;;;;;;;22.74;100.00;97829.34;5025657;28;20022;-79
2022/07/03 05:49:27;;;;;;;23.40;14.00;;;;;;;22.71;100.00;97824.22;5010386;28;20030;-80
2022/07/03 05:51:53;;;;;;;18.83;13.18;;;;;;;22.81;100.00;97832.28;5011141;28;20041;-79
2022/07/03 05:54:19;;;;;;;21.15;14.18;;;;;;;22.92;100.00;97831.97;4995117;28;20028;-79
2022/07/03 05:56:44;;;;;;;19.23;13.52;;;;;;;23.03;100.00;97832.56;5028156;28;20030;-80
2022/07/03 05:59:10;;;;;;;21.08;14.35;;;;;;;23.09;100.00;97837.34;5027759;28;20036;-79
2022/07/03 06:01:36;;;;;;;22.45;14.95;;;;;;;23.11;100.00;97827.09;5011117;28;20057;-80
2022/07/03 06:04:01;;;;;;;20.95;15.68;;;;;;;23.10;100.00;97825.38;5010724;28;20431;-79
2022/07/03 06:06:27;;;;;;;25.23;14.10;;;;;;;23.06;100.00;97829.50;5009126;28;20025;-79
2022/07/03 06:08:53;;;;;;;19.67;13.68;;;;;;;23.15;100.00;97833.94;5008770;28;20093;-80
2022/07/03 06:11:18;;;;;;;17.15;13.32;;;;;;;23.27;100.00;97836.34;4991480;28;20030;-82
2022/07/03 06:13:44;;;;;;;22.38;14.98;;;;;;;23.20;100.00;97839.75;5009559;28;20052;-79
2022/07/03 06:16:10;;;;;;;21.13;16.05;;;;;;;23.18;100.00;97828.16;5006921;28;20026;-80
2022/07/03 06:18:35;;;;;;;27.38;16.40;;;;;;;23.25;100.00;97833.81;5007163;28;20049;-79
2022/07/03 06:21:01;;;;;;;19.20;13.50;;;;;;;23.30;100.00;97833.28;5007705;28;20026;-82
2022/07/03 06:23:26;;;;;;;19.98;13.23;;;;;;;23.31;100.00;97837.75;4995666;28;20029;-78
2022/07/03 06:25:52;;;;;;;22.88;13.95;;;;;;;23.62;100.00;97842.44;4993901;28;20034;-79
2022/07/03 06:28:17;;;;;;;22.75;16.75;;;;;;;23.84;100.00;97832.69;4989893;28;20493;-80
2022/07/03 06:30:43;;;;;;;27.13;16.10;;;;;;;24.11;100.00;97837.88;5026414;28;20030;-79
2022/07/03 06:33:09;;;;;;;32.58;18.85;;;;;;;24.32;100.00;97840.06;5005792;28;20096;-81
2022/07/03 06:35:34;;;;;;;23.52;15.52;;;;;;;24.37;100.00;97843.09;5007950;28;20029;-78
2022/07/03 06:38:04;;;;;;;24.48;15.73;;;;;;;24.31;100.00;97841.06;5027345;28;20034;-79
2022/07/03 06:40:29;;;;;;;21.40;16.40;;;;;;;24.31;100.00;97829.28;5027890;28;20092;-78
2022/07/03 06:42:55;;;;;;;24.70;14.88;;;;;;;24.35;100.00;97830.63;5027995;28;20477;-79
2022/07/03 06:45:21;;;;;;;26.83;15.68;;;;;;;24.66;100.00;97853.47;4984246;28;20034;-80
2022/07/03 06:47:46;;;;;;;29.45;14.55;;;;;;;24.87;100.00;97842.81;4996559;28;20030;-78
2022/07/03 06:50:12;;;;;;;31.55;17.40;;;;;;;24.63;100.00;97854.69;5007592;28;20022;-78
2022/07/03 06:52:38;;;;;;;27.95;20.50;;;;;;;24.74;100.00;97846.09;5011183;28;20061;-79
2022/07/03 06:55:05;;;;;;;26.40;18.85;;;;;;;24.94;100.00;97852.03;5003837;28;20552;-80
2022/07/03 06:57:30;;;;;;;36.88;22.63;;;;;;;24.69;100.00;97844.91;5024538;28;20369;-80
2022/07/03 06:59:56;;;;;;;55.53;34.35;;;;;;;24.69;100.00;97840.31;4994086;28;20033;-79
2022/07/03 07:02:21;;;;;;;37.70;24.13;;;;;;;25.00;100.00;97840.38;5007288;28;20484;-77
2022/07/03 07:04:47;;;;;;;32.15;21.92;;;;;;;24.65;100.00;97838.06;5025629;28;20033;-81
2022/07/03 07:07:12;;;;;;;30.15;17.42;;;;;;;24.69;100.00;97833.97;5011027;28;20030;-80
2022/07/03 07:09:38;;;;;;;31.80;15.52;;;;;;;24.68;100.00;97846.78;5006903;28;20017;-80
2022/07/03 07:12:04;;;;;;;22.23;15.13;;;;;;;24.20;100.00;97842.28;5010705;28;20033;-81
2022/07/03 07:14:30;;;;;;;21.75;14.18;;;;;;;24.63;100.00;97843.75;5007653;28;20386;-82
2022/07/03 07:16:56;;;;;;;35.33;16.48;;;;;;;24.79;100.00;97831.88;4992334;28;20032;-83
2022/07/03 07:19:21;;;;;;;20.85;13.57;;;;;;;24.76;100.00;97832.25;4994481;28;20022;-83
2022/07/03 07:21:47;;;;;;;17.42;13.55;;;;;;;24.51;100.00;97827.88;5010432;28;20512;-80
2022/07/03 07:24:12;;;;;;;18.38;13.90;;;;;;;24.26;100.00;97827.06;5008209;28;20109;-83
2022/07/03 07:26:38;;;;;;;17.98;13.27;;;;;;;24.12;100.00;97827.75;5010829;28;20084;-81
2022/07/03 07:29:04;;;;;;;22.92;13.32;;;;;;;24.00;100.00;97829.97;5009825;28;20033;-82
2022/07/03 07:31:29;;;;;;;17.92;13.75;;;;;;;23.95;100.00;97836.97;4994240;28;20054;-82
2022/07/03 07:33:55;;;;;;;23.58;14.68;;;;;;;23.89;100.00;97822.13;4994402;28;20458;-82
2022/07/03 07:36:21;;;;;;;27.92;16.17;;;;;;;24.04;100.00;97828.59;4993828;28;20037;-80
2022/07/03 07:38:46;;;;;;;26.30;15.80;;;;;;;24.54;100.00;97820.16;5010628;28;20043;-82
2022/07/03 07:41:12;;;;;;;23.65;14.93;;;;;;;24.71;100.00;97824.53;5009729;28;20023;-82
2022/07/03 07:43:37;;;;;;;18.17;13.65;;;;;;;24.89;100.00;97827.06;5007983;28;20036;-81
2022/07/03 07:46:03;;;;;;;20.75;13.65;;;;;;;25.12;100.00;97819.78;5011618;28;20029;-80
2022/07/03 07:48:29;;;;;;;20.23;12.90;;;;;;;25.16;100.00;97820.28;5007424;28;20026;-81
2022/07/03 07:50:57;;;;;;;24.27;13.15;;;;;;;25.12;100.00;97827.13;5018452;28;20026;-81
2022/07/03 07:53:23;;;;;;;17.65;12.55;;;;;;;25.31;99.43;97822.06;5021223;28;20029;-81
2022/07/03 07:55:49;;;;;;;22.80;12.57;;;;;;;25.33;98.47;97825.47;5026587;28;20100;-82
2022/07/03 07:58:14;;;;;;;16.80;12.68;;;;;;;25.37;98.65;97827.84;5026338;28;20515;-81
2022/07/03 08:05:35;;;;;;;18.33;12.20;;;;;;;25.47;95.76;97826.56;4998700;28;20413;-80
2022/07/03 08:06:10;;;;;;;14.68;11.80;;;;;;;25.56;94.29;97824.69;5000229;28;20507;-80
2022/07/03 08:08:35;;;;;;;18.73;11.15;;;;;;;25.58;91.71;97823.47;5009865;28;20018;-82
2022/07/03 08:11:01;;;;;;;15.45;11.43;;;;;;;25.46;92.37;97818.53;5026498;28;20540;-80
2022/07/03 08:13:26;;;;;;;15.45;12.90;;;;;;;25.24;93.16;97810.13;5009865;28;20022;-80
2022/07/03 08:15:52;;;;;;;18.40;11.68;;;;;;;25.46;92.62;97813.94;4989376;28;20077;-82
2022/07/03 08:18:18;;;;;;;18.20;12.18;;;;;;;26.06;90.02;97815.84;5024746;28;20029;-82
2022/07/03 08:20:43;;;;;;;14.15;11.90;;;;;;;26.58;86.50;97819.47;5009591;28;20030;-81
2022/07/03 08:23:09;;;;;;;22.63;12.20;;;;;;;27.57;81.64;97820.78;5005772;28;20061;-81
2022/07/03 08:25:35;;;;;;;18.73;12.15;;;;;;;28.55;76.75;97820.88;5009179;28;20030;-81
2022/07/03 08:28:00;;;;;;;18.55;11.48;;;;;;;28.74;74.74;97820.16;5022281;28;20065;-80
2022/07/03 08:30:26;;;;;;;20.30;12.25;;;;;;;28.75;73.93;97825.50;5026079;28;20018;-81
2022/07/03 08:32:54;;;;;;;16.45;12.25;;;;;;;27.45;79.00;97828.72;5010965;28;20501;-80
2022/07/03 08:35:20;;;;;;;14.23;12.15;;;;;;;27.94;77.05;97828.78;5018530;28;20060;-82
2022/07/03 08:37:47;;;;;;;21.98;12.35;;;;;;;28.71;73.83;97817.81;5030824;28;20030;-82
2022/07/03 08:40:14;;;;;;;19.13;12.43;;;;;;;29.44;70.30;97823.50;5030273;28;20028;-81
2022/07/03 08:43:06;;;;;;;18.20;12.50;;;;;;;29.43;68.97;97823.72;4994057;28;20604;-81
2022/07/03 08:45:33;;;;;;;17.70;12.23;;;;;;;30.73;65.12;97821.34;5029533;28;20030;-81
2022/07/03 08:47:59;;;;;;;19.80;12.98;;;;;;;32.42;58.68;97817.97;4997395;28;20033;-80
2022/07/03 08:50:25;;;;;;;18.98;12.07;;;;;;;32.80;56.27;97809.50;5013334;28;20558;-81
2022/07/03 08:52:51;;;;;;;24.83;12.50;;;;;;;33.48;53.67;97802.75;5028147;28;20026;-81
2022/07/03 08:55:18;;;;;;;13.75;10.95;;;;;;;35.35;49.59;97793.63;5010385;28;20474;-80
2022/07/03 08:57:45;;;;;;;20.42;11.20;;;;;;;36.60;45.58;97783.25;5029829;28;20022;-81
2022/07/03 09:00:12;;;;;;;15.95;10.63;;;;;;;37.53;43.37;97784.31;5006170;28;20033;-81
2022/07/03 09:02:43;;;;;;;16.40;10.70;;;;;;;39.37;40.40;97781.75;5012684;28;20030;-81
2022/07/03 09:05:09;;;;;;;11.90;9.65;;;;;;;38.92;40.91;97785.94;5014001;28;20030;-80
2022/07/03 09:07:36;;;;;;;16.80;9.88;;;;;;;40.25;38.04;97763.81;5004419;28;20030;-81
2022/07/03 09:10:07;;;;;;;14.77;8.85;;;;;;;40.36;36.40;97759.06;5029732;28;20036;-82
2022/07/03 09:12:33;;;;;;;;;;;;;;;39.83;37.78;97764.00;5013385;28;20022;-81
2022/07/03 09:15:00;;;;;;;18.35;9.73;;;;;;;36.81;41.53;97762.91;5004974;28;19968;-81
2022/07/03 09:17:27;;;;;;;14.85;10.00;;;;;;;33.61;48.54;97779.56;5029450;28;20097;-80
2022/07/03 09:19:53;;;;;;;21.48;10.13;;;;;;;34.14;48.62;97793.53;5006388;28;20092;-79
2022/07/03 09:22:27;;;;;;;15.27;11.02;;;;;;;32.92;50.72;97793.81;5013340;28;20029;-80
2022/07/03 09:25:16;;;;;;;23.52;13.18;;;;;;;34.40;49.44;97783.88;5027347;28;20041;-80
2022/07/03 09:27:52;;;;;;;17.00;11.95;;;;;;;33.75;50.10;97792.16;5005402;28;20478;-81
2022/07/03 09:30:19;;;;;;;19.25;13.05;;;;;;;33.38;51.74;97777.47;5005065;28;20050;-82
2022/07/03 09:32:46;;;;;;;23.50;15.45;;;;;;;34.39;49.00;97777.50;5009220;28;20153;-81
2022/07/03 09:35:20;;;;;;;17.35;10.52;;;;;;;33.35;50.50;97786.28;4996457;28;20068;-81
2022/07/03 09:37:57;;;;;;;17.05;11.27;;;;;;;36.24;44.70;97772.59;5012847;28;20477;-81
2022/07/03 09:40:24;;;;;;;17.70;10.13;;;;;;;37.28;42.65;97759.69;5000287;28;20033;-80
2022/07/03 09:43:07;;;;;;;17.98;10.45;;;;;;;38.36;41.35;97762.28;5012774;28;20105;-80
2022/07/03 09:45:58;;;;;;;13.23;10.45;;;;;;;35.93;45.46;97761.97;5009086;28;20489;-82
2022/07/03 09:48:35;;;;;;;25.30;11.07;;;;;;;36.95;42.61;97755.84;5029239;28;20026;-79
2022/07/03 09:51:26;;;;;;;13.70;10.57;;;;;;;35.72;44.27;97760.72;5028816;28;20030;-81
2022/07/03 09:54:04;;;;;;;10.75;8.95;;;;;;;37.53;40.12;97746.06;5004083;28;20104;-81
2022/07/03 09:56:38;;;;;;;10.15;8.50;;;;;;;37.43;40.42;97737.53;5011424;28;20038;-80
2022/07/03 09:59:11;;;;;;;10.95;8.23;;;;;;;36.58;40.60;97738.00;4995575;28;20394;-80
2022/07/03 10:01:38;;;;;;;12.85;8.10;;;;;;;37.20;40.63;97747.00;5013667;28;20049;-80
2022/07/03 10:04:10;;;;;;;11.73;7.70;;;;;;;34.88;43.65;97753.94;5003709;28;20028;-81
2022/07/03 10:07:05;;;;;;;12.93;8.07;;;;;;;35.00;43.60;97751.13;5008950;28;20516;-81
2022/07/03 10:09:32;;;;;;;9.45;8.02;;;;;;;34.13;45.78;97739.03;5003778;28;20034;-80
2022/07/03 10:12:02;;;;;;;8.88;7.82;;;;;;;35.49;42.92;97742.16;4995693;28;20449;-81
2022/07/03 10:14:29;;;;;;;9.80;7.68;;;;;;;36.21;42.49;97732.09;5007705;28;20443;-82
2022/07/03 10:16:59;;;;;;;14.32;7.93;;;;;;;36.86;41.36;97739.81;5012056;28;20493;-80
2022/07/03 10:19:38;;;;;;;19.88;8.50;;;;;;;37.40;40.90;97730.53;4996068;28;20057;-80
2022/07/03 10:22:16;;;;;;;8.27;7.47;;;;;;;35.75;42.55;97726.78;5010295;28;20034;-81
2022/07/03 10:24:42;;;;;;;9.85;8.07;;;;;;;35.30;42.97;97723.97;4991718;28;20025;-81
2022/07/03 10:27:08;;;;;;;8.55;7.25;;;;;;;37.16;39.52;97704.00;4995550;28;20561;-81
2022/07/03 10:29:36;;;;;;;11.73;7.38;;;;;;;36.66;39.02;97698.56;5011008;28;20030;-82
2022/07/03 10:32:01;;;;;;;9.30;7.28;;;;;;;35.43;41.19;97700.56;4995468;28;20449;-81
2022/07/03 10:34:28;;;;;;;8.93;8.02;;;;;;;34.92;43.70;97720.91;5005987;28;20026;-79
2022/07/03 10:37:01;;;;;;;10.13;7.82;;;;;;;33.97;43.90;97709.16;5008415;28;20030;-80
2022/07/03 10:39:39;;;;;;;9.23;7.25;;;;;;;35.07;42.20;97696.19;4979034;28;20033;-80
2022/07/03 10:45:08;;;;;;;9.07;7.93;;;;;;;34.25;42.93;97704.63;4998856;28;20044;-81
2022/07/03 10:47:48;;;;;;;11.02;8.27;;;;;;;32.92;46.14;97696.78;5005286;28;20038;-80
2022/07/03 10:50:21;;;;;;;15.88;8.15;;;;;;;33.77;46.39;97703.94;4994918;28;20084;-80
2022/07/03 10:52:47;;;;;;;10.73;8.73;;;;;;;34.77;44.42;97682.47;4979915;28;20033;-81
2022/07/03 10:55:14;;;;;;;13.00;7.93;;;;;;;34.57;42.75;97677.31;4994203;28;20469;-81
2022/07/03 10:57:41;;;;;;;12.80;8.05;;;;;;;34.68;43.89;97686.72;4995013;28;20029;-80
2022/07/03 11:00:14;;;;;;;9.45;8.40;;;;;;;35.87;41.02;97681.06;4996580;28;20025;-81
2022/07/03 11:02:42;;;;;;;9.60;7.15;;;;;;;35.47;39.59;97674.75;5010663;28;20038;-81
2022/07/03 11:05:19;;;;;;;9.90;7.90;;;;;;;35.71;39.16;97656.88;5011415;28;20080;-82
2022/07/03 11:07:48;;;;;;;11.82;7.50;;;;;;;35.16;40.31;97666.94;4995363;28;20025;-80
2022/07/03 11:10:16;;;;;;;7.85;7.13;;;;;;;35.98;38.33;97659.81;5010840;28;20501;-81
2022/07/03 11:13:15;;;;;;;9.10;6.90;;;;;;;36.11;38.53;97665.09;4998105;28;20038;-82
2022/07/03 11:15:45;;;;;;;7.88;7.00;;;;;;;35.15;40.08;97656.88;5005938;28;20029;-80
2022/07/03 11:18:33;;;;;;;8.32;7.00;;;;;;;35.69;39.92;97661.81;5000991;28;20026;-82
2022/07/03 11:21:14;;;;;;;8.20;7.40;;;;;;;36.09;39.03;97653.31;5010681;28;20034;-80
2022/07/03 11:24:01;;;;;;;9.77;7.68;;;;;;;35.84;40.06;97652.88;5002709;28;20030;-81
2022/07/03 11:26:27;;;;;;;10.60;7.47;;;;;;;34.74;41.91;97644.03;5016821;28;20076;-80
2022/07/03 11:28:53;;;;;;;20.00;8.55;;;;;;;35.40;41.74;97656.53;5010924;28;20054;-80
2022/07/03 11:31:21;;;;;;;11.32;7.38;;;;;;;36.31;38.64;97643.09;4997062;28;20088;-81
2022/07/03 11:33:56;;;;;;;9.25;6.47;;;;;;;36.63;37.46;97632.13;5014355;28;20408;-80